Terminal Aerodrome Forecast
Issued by NWS

Home | Current Version | Previous Version | Text Only | Print | Product List | Glossary On
Versions: 1 2 3 4 5 6 7 8 9 10 11 12 13 14 15
000
FTUS43 KGRR 291400 AAA
TAFMKG
TAF AMD
KMKG 291415Z 2914/3012 14011KT P6SM -SHRA OVC050
     FM291700 14011KT P6SM -SHRA VCTS OVC035CB
     FM292100 17012KT P6SM BKN050 OVC140
     FM300800 18011KT P6SM OVC025=

USA.gov is the U.S. government's official web portal to all federal, state and local government web resources and services.